This is the latest recevied weather packets stored in our database for station/object N2IC. If no packets are shown the sender has not sent any weather packets the latest 10 day(s).
| Time | Temp. | Humidity | Pressure | Rain* | Wind** | Luminosity | Snow |
|---|---|---|---|---|---|---|---|
| 1777345201 | 14.44° C | 21% | - | 0 mm | - | - | - |
| 1777344602 | 14.44° C | 21% | - | 0 mm | - | - | - |
| 1777342201 | 15° C | 21% | - | 0 mm | - | - | - |
| 1777340402 | 16.11° C | 21% | - | 0 mm | - | - | - |
| 1777335002 | 18.33° C | 19% | - | 0 mm | - | - | - |
| 1777332601 | 18.33° C | 19% | - | 0 mm | - | - | - |
| 1777327801 | 17.78° C | 19% | - | 0 mm | - | - | - |
| 1777324802 | 18.33° C | 18% | - | 0 mm | - | - | - |
| 1777323001 | 17.78° C | 18% | - | 0 mm | - | - | - |
| 1777321801 | 18.33° C | 17% | - | 0 mm | - | - | - |
| 1777320002 | 17.22° C | 17% | - | 0 mm | - | - | - |
| 1777319401 | 17.22° C | 17% | - | 0 mm | - | - | - |
| 1777312801 | 14.44° C | 21% | - | 0 mm | - | - | - |
| 1777306802 | 13.33° C | 26% | - | 0 mm | - | - | - |
| 1777293601 | 6.11° C | 52% | - | 0 mm | - | - | - |
| 1777288802 | 6.67° C | 50% | - | 0 mm | - | - | - |
| 1777262402 | 11.11° C | 41% | - | 0 mm | - | - | - |
| 1777261802 | 11.11° C | 39% | - | 0 mm | - | - | - |
| 1777261201 | 11.67° C | 39% | - | 0 mm | - | - | - |
| 1777256402 | 12.78° C | 35% | - | 0 mm | - | - | - |
| 1777255801 | 12.78° C | 34% | - | 0 mm | - | - | - |
| 1777255202 | 13.33° C | 33% | - | 0 mm | - | - | - |
| 1777254002 | 13.89° C | 30% | - | 0 mm | - | - | - |
| 1777250402 | 15.56° C | 24% | - | 0 mm | - | - | - |
| 1777249802 | 16.11° C | 24% | - | 0 mm | - | - | - |
* Rain latest 24 hours (hover to see other rain measurements)
** Current wind speed in m/s (hover to see current wind gust speed)